Time;durP1;ratioP1;P1;durP2;ratioP2;P2;SDS_P1;SDS_P2;PMS_P1;PMS_P2;Temp;Humidity;BMP_temperature;BMP_pressure;BME280_temperature;BME280_humidity;BME280_pressure;Samples;Min_cycle;Max_cycle;Signal;HPM_P1;HPM_P2
2024/01/16 00:02:19;;;;;;;49.05;46.53;;;;;;;;;;5030781;28;20813;-55
2024/01/16 00:04:44;;;;;;;46.00;43.67;;;;;;;;;;5031972;28;20040;-57
2024/01/16 00:07:10;;;;;;;49.28;46.13;;;;;;;;;;5031340;28;20112;-56
2024/01/16 00:09:35;;;;;;;47.60;45.08;;;;;;;;;;5032536;28;20052;-56
2024/01/16 00:12:03;;;;;;;53.70;50.15;;;;;;;;;;5033856;28;20029;-56
2024/01/16 00:14:28;;;;;;;49.20;46.72;;;;;;;;;;5029655;28;20471;-57
2024/01/16 00:16:53;;;;;;;48.50;45.97;;;;;;;;;;5030780;28;20087;-57
2024/01/16 00:19:18;;;;;;;48.35;45.90;;;;;;;;;;5027387;28;20535;-57
2024/01/16 00:21:47;;;;;;;47.35;44.95;;;;;;;;;;5021400;28;20074;-56
2024/01/16 00:24:15;;;;;;;47.90;45.47;;;;;;;;;;5026968;28;20029;-55
2024/01/16 00:26:40;;;;;;;50.65;48.10;;;;;;;;;;5029574;28;20445;-56
2024/01/16 00:29:06;;;;;;;52.25;49.63;;;;;;;;;;5031064;28;20029;-56
2024/01/16 00:31:31;;;;;;;53.10;50.45;;;;;;;;;;5032378;28;20192;-56
2024/01/16 00:33:56;;;;;;;53.25;50.50;;;;;;;;;;5030420;28;20022;-55
2024/01/16 00:36:21;;;;;;;52.42;49.78;;;;;;;;;;5031872;28;20041;-57
2024/01/16 00:38:47;;;;;;;50.42;47.85;;;;;;;;;;5027791;28;20037;-56
2024/01/16 00:41:14;;;;;;;52.42;49.78;;;;;;;;;;5034307;28;20056;-57
2024/01/16 00:43:40;;;;;;;49.80;47.28;;;;;;;;;;5033762;28;20049;-56
2024/01/16 00:46:05;;;;;;;50.17;47.65;;;;;;;;;;5031932;28;20029;-56
2024/01/16 00:48:31;;;;;;;49.92;47.28;;;;;;;;;;5032932;28;20142;-57
2024/01/16 00:50:56;;;;;;;52.05;49.40;;;;;;;;;;5029641;28;20046;-55
2024/01/16 00:53:21;;;;;;;49.45;46.95;;;;;;;;;;5033654;28;20045;-57
2024/01/16 00:55:47;;;;;;;50.85;47.95;;;;;;;;;;5031586;28;20102;-56
2024/01/16 00:58:12;;;;;;;48.35;45.90;;;;;;;;;;5035077;28;20489;-56
2024/01/16 01:00:38;;;;;;;50.05;47.53;;;;;;;;;;5037273;28;20044;-56
2024/01/16 01:03:04;;;;;;;50.63;48.05;;;;;;;;;;5033826;28;20037;-56
2024/01/16 01:05:29;;;;;;;49.47;46.95;;;;;;;;;;5024087;28;20044;-56
2024/01/16 01:07:55;;;;;;;48.08;45.65;;;;;;;;;;5029482;28;20418;-56
2024/01/16 01:10:20;;;;;;;51.50;48.67;;;;;;;;;;5030305;28;20183;-56
2024/01/16 01:12:46;;;;;;;50.72;48.15;;;;;;;;;;5031194;28;20040;-56
2024/01/16 01:15:12;;;;;;;47.63;45.22;;;;;;;;;;5031763;28;20044;-56
2024/01/16 01:17:37;;;;;;;46.80;44.40;;;;;;;;;;5033567;28;20658;-57
2024/01/16 01:20:02;;;;;;;50.78;48.17;;;;;;;;;;5030980;28;20138;-56
2024/01/16 01:22:28;;;;;;;48.65;46.20;;;;;;;;;;5030370;28;20029;-56
2024/01/16 01:24:53;;;;;;;51.92;49.33;;;;;;;;;;5032734;28;20026;-53
2024/01/16 01:27:18;;;;;;;50.05;47.47;;;;;;;;;;5032505;28;20094;-56
2024/01/16 01:29:44;;;;;;;52.55;49.85;;;;;;;;;;5030013;28;20033;-55
2024/01/16 01:32:09;;;;;;;50.08;47.47;;;;;;;;;;5027321;28;21287;-56
2024/01/16 01:34:35;;;;;;;52.72;50.05;;;;;;;;;;5030236;28;20033;-56
2024/01/16 01:37:00;;;;;;;51.70;49.03;;;;;;;;;;5031241;28;20068;-53
2024/01/16 01:39:25;;;;;;;50.00;47.10;;;;;;;;;;5029089;28;20067;-56
2024/01/16 01:41:51;;;;;;;48.85;46.38;;;;;;;;;;5028835;28;20068;-55
2024/01/16 01:44:16;;;;;;;50.20;47.65;;;;;;;;;;5031378;28;20026;-56
2024/01/16 01:46:42;;;;;;;51.55;48.92;;;;;;;;;;5031545;28;20045;-56
2024/01/16 01:49:07;;;;;;;48.80;46.33;;;;;;;;;;5029383;28;20029;-56
2024/01/16 01:51:33;;;;;;;49.38;46.85;;;;;;;;;;5030001;28;20018;-56
2024/01/16 01:54:01;;;;;;;49.28;46.65;;;;;;;;;;5034293;28;20033;-54
2024/01/16 01:56:27;;;;;;;55.08;52.13;;;;;;;;;;5029127;28;20038;-56
2024/01/16 01:58:56;;;;;;;50.90;48.30;;;;;;;;;;5030386;28;20040;-55
2024/01/16 02:01:22;;;;;;;49.00;46.50;;;;;;;;;;5030616;28;20458;-54
2024/01/16 02:03:50;;;;;;;48.83;46.22;;;;;;;;;;5029647;28;20033;-54
2024/01/16 02:06:16;;;;;;;49.65;47.15;;;;;;;;;;5031720;28;20032;-55
2024/01/16 02:08:42;;;;;;;49.13;46.42;;;;;;;;;;5030095;28;20040;-56
2024/01/16 02:11:07;;;;;;;48.83;46.13;;;;;;;;;;5032966;28;20089;-54
2024/01/16 02:13:33;;;;;;;48.33;45.83;;;;;;;;;;5031360;28;20036;-56
2024/01/16 02:15:58;;;;;;;48.63;46.15;;;;;;;;;;5034164;28;20043;-56
2024/01/16 02:18:24;;;;;;;50.70;48.10;;;;;;;;;;5030147;28;20220;-55
2024/01/16 02:20:49;;;;;;;47.97;45.53;;;;;;;;;;5030271;28;20033;-57
2024/01/16 02:23:15;;;;;;;48.58;46.13;;;;;;;;;;5032662;28;20043;-56
2024/01/16 02:25:42;;;;;;;48.58;46.00;;;;;;;;;;5032673;28;20332;-57
2024/01/16 02:28:07;;;;;;;47.88;45.45;;;;;;;;;;5027238;28;20029;-55
2024/01/16 02:30:33;;;;;;;48.67;46.20;;;;;;;;;;5031082;28;20098;-57
2024/01/16 02:32:58;;;;;;;49.78;47.22;;;;;;;;;;5029275;28;20190;-56
2024/01/16 02:35:24;;;;;;;49.67;47.15;;;;;;;;;;5031248;28;20725;-56
2024/01/16 02:37:49;;;;;;;49.22;46.72;;;;;;;;;;5028524;28;20041;-57
2024/01/16 02:40:15;;;;;;;51.08;48.45;;;;;;;;;;5032154;28;20041;-57
2024/01/16 02:42:40;;;;;;;55.08;52.22;;;;;;;;;;5032909;28;20500;-55
2024/01/16 02:45:06;;;;;;;56.15;53.28;;;;;;;;;;5030226;28;20627;-57
2024/01/16 02:47:32;;;;;;;57.85;54.75;;;;;;;;;;5029907;28;20048;-57
2024/01/16 02:49:59;;;;;;;56.95;54.08;;;;;;;;;;5026909;28;20042;-57
2024/01/16 02:52:24;;;;;;;62.63;59.38;;;;;;;;;;5029662;28;20226;-57
2024/01/16 02:54:50;;;;;;;60.65;57.35;;;;;;;;;;5029976;28;20120;-57
2024/01/16 02:57:15;;;;;;;59.95;56.78;;;;;;;;;;5031111;28;20086;-57
2024/01/16 02:59:43;;;;;;;58.08;54.97;;;;;;;;;;5034154;28;20029;-57
2024/01/16 03:02:09;;;;;;;63.00;59.42;;;;;;;;;;5035426;28;20107;-57
2024/01/16 03:04:35;;;;;;;60.15;57.10;;;;;;;;;;5032618;28;20110;-58
2024/01/16 03:07:00;;;;;;;58.67;55.67;;;;;;;;;;5034497;28;20040;-57
2024/01/16 03:09:26;;;;;;;61.67;58.55;;;;;;;;;;5030848;28;20037;-55
2024/01/16 03:11:51;;;;;;;65.43;62.15;;;;;;;;;;5031034;28;20078;-57
2024/01/16 03:14:18;;;;;;;64.72;61.22;;;;;;;;;;5035542;28;20042;-57
2024/01/16 03:16:44;;;;;;;67.93;64.55;;;;;;;;;;5033087;28;20041;-57
2024/01/16 03:19:09;;;;;;;67.30;63.90;;;;;;;;;;5034105;28;20414;-57
2024/01/16 03:21:35;;;;;;;67.40;64.03;;;;;;;;;;5034005;28;20032;-58
2024/01/16 03:24:00;;;;;;;71.53;67.80;;;;;;;;;;5034599;28;20476;-57
2024/01/16 03:26:25;;;;;;;68.60;65.13;;;;;;;;;;5034563;28;20505;-56
2024/01/16 03:28:51;;;;;;;69.03;65.55;;;;;;;;;;5034877;28;20045;-56
2024/01/16 03:31:17;;;;;;;71.18;67.53;;;;;;;;;;5035115;28;20636;-57
2024/01/16 03:33:43;;;;;;;72.70;69.07;;;;;;;;;;5034516;28;20052;-56
2024/01/16 03:36:09;;;;;;;75.78;71.88;;;;;;;;;;5030905;28;20071;-56
2024/01/16 03:38:36;;;;;;;74.25;70.20;;;;;;;;;;5034969;28;20033;-56
2024/01/16 03:41:03;;;;;;;68.63;65.18;;;;;;;;;;5034721;28;20051;-56
2024/01/16 03:43:29;;;;;;;69.85;66.30;;;;;;;;;;5034539;28;20055;-56
2024/01/16 03:45:57;;;;;;;69.13;65.63;;;;;;;;;;5034895;28;20033;-55
2024/01/16 03:48:22;;;;;;;67.78;64.32;;;;;;;;;;5033231;28;20068;-53
2024/01/16 03:50:47;;;;;;;68.78;65.35;;;;;;;;;;5030495;28;20427;-56
2024/01/16 03:53:12;;;;;;;69.30;65.82;;;;;;;;;;5031328;28;20042;-56
2024/01/16 03:55:38;;;;;;;69.18;65.70;;;;;;;;;;5037393;28;20463;-56
2024/01/16 03:58:03;;;;;;;66.47;63.13;;;;;;;;;;5034668;28;20029;-53
2024/01/16 04:00:28;;;;;;;69.93;66.38;;;;;;;;;;5028822;28;20172;-57
2024/01/16 04:02:54;;;;;;;68.47;64.85;;;;;;;;;;5032438;28;20072;-56
2024/01/16 04:05:19;;;;;;;70.78;67.22;;;;;;;;;;5030678;28;20045;-57
2024/01/16 04:07:44;;;;;;;70.93;67.32;;;;;;;;;;5030473;28;20124;-56
2024/01/16 04:10:10;;;;;;;70.57;67.03;;;;;;;;;;5034416;28;20053;-56
2024/01/16 04:12:35;;;;;;;68.95;65.45;;;;;;;;;;5032722;28;20463;-57
2024/01/16 04:15:00;;;;;;;71.47;67.88;;;;;;;;;;5034520;28;20106;-54
2024/01/16 04:17:26;;;;;;;70.65;67.07;;;;;;;;;;5034089;28;20037;-57
2024/01/16 04:19:51;;;;;;;72.88;68.68;;;;;;;;;;5031099;28;20826;-56
2024/01/16 04:22:16;;;;;;;68.60;65.18;;;;;;;;;;5033978;28;20097;-57
2024/01/16 04:24:42;;;;;;;69.97;66.40;;;;;;;;;;5034402;28;20030;-57
2024/01/16 04:27:07;;;;;;;74.30;70.50;;;;;;;;;;5034597;28;20426;-57
2024/01/16 04:29:32;;;;;;;64.78;61.55;;;;;;;;;;5032561;28;20621;-57
2024/01/16 04:31:58;;;;;;;68.28;64.63;;;;;;;;;;5032871;28;20033;-57
2024/01/16 04:34:23;;;;;;;64.97;61.72;;;;;;;;;;5029808;28;20116;-57
2024/01/16 04:36:48;;;;;;;68.28;64.90;;;;;;;;;;5032800;28;20028;-57
2024/01/16 04:39:14;;;;;;;66.05;62.70;;;;;;;;;;5036039;28;20045;-57
2024/01/16 04:41:39;;;;;;;63.72;60.47;;;;;;;;;;5035604;28;20032;-60
2024/01/16 04:44:04;;;;;;;63.58;60.28;;;;;;;;;;5032346;28;20079;-58
2024/01/16 04:46:30;;;;;;;63.42;60.15;;;;;;;;;;5035913;28;20032;-60
2024/01/16 04:48:55;;;;;;;62.63;59.40;;;;;;;;;;5032092;28;20379;-58
2024/01/16 04:51:20;;;;;;;65.72;62.45;;;;;;;;;;5031073;28;20040;-58
2024/01/16 04:53:46;;;;;;;65.00;61.63;;;;;;;;;;5031300;28;20029;-59
2024/01/16 04:56:11;;;;;;;67.97;64.55;;;;;;;;;;5034035;28;20116;-58
2024/01/16 04:58:37;;;;;;;70.25;66.70;;;;;;;;;;5033217;28;20044;-58
2024/01/16 05:01:02;;;;;;;70.85;67.30;;;;;;;;;;5030976;28;20038;-59
2024/01/16 05:03:27;;;;;;;67.93;64.38;;;;;;;;;;5031104;28;20045;-58
2024/01/16 05:05:53;;;;;;;70.80;66.65;;;;;;;;;;5035773;28;20363;-58
2024/01/16 05:08:18;;;;;;;73.35;69.43;;;;;;;;;;5033329;28;20049;-59
2024/01/16 05:10:43;;;;;;;72.32;68.70;;;;;;;;;;5033428;28;20037;-59
2024/01/16 05:13:11;;;;;;;69.45;65.88;;;;;;;;;;5032639;28;20908;-59
2024/01/16 05:15:36;;;;;;;72.78;69.10;;;;;;;;;;5031857;28;20036;-59
2024/01/16 05:18:03;;;;;;;69.25;65.75;;;;;;;;;;5029865;28;20029;-59
2024/01/16 05:20:29;;;;;;;71.68;67.97;;;;;;;;;;5029684;28;20041;-59
2024/01/16 05:22:54;;;;;;;68.75;65.32;;;;;;;;;;5032155;28;20471;-59
2024/01/16 05:25:21;;;;;;;69.05;65.60;;;;;;;;;;5031510;28;20052;-59
2024/01/16 05:27:46;;;;;;;67.68;64.30;;;;;;;;;;5034383;28;20040;-59
2024/01/16 05:30:12;;;;;;;66.00;62.67;;;;;;;;;;5030336;28;20047;-59
2024/01/16 05:32:39;;;;;;;65.78;62.45;;;;;;;;;;5031735;28;20033;-61
2024/01/16 05:35:05;;;;;;;68.55;65.03;;;;;;;;;;5030948;28;20460;-59
2024/01/16 05:37:30;;;;;;;67.32;63.97;;;;;;;;;;5030778;28;20037;-57
2024/01/16 05:39:55;;;;;;;69.88;66.18;;;;;;;;;;5030972;28;20702;-57
2024/01/16 05:42:21;;;;;;;66.90;63.38;;;;;;;;;;5031637;28;20033;-59
2024/01/16 05:44:46;;;;;;;65.65;62.10;;;;;;;;;;5033053;28;20033;-58
2024/01/16 05:47:11;;;;;;;62.80;59.58;;;;;;;;;;5033079;28;20033;-58
2024/01/16 05:49:37;;;;;;;67.40;64.00;;;;;;;;;;5029997;28;20040;-58
2024/01/16 05:52:02;;;;;;;65.88;62.40;;;;;;;;;;5030163;28;20026;-58
2024/01/16 05:54:27;;;;;;;65.88;62.45;;;;;;;;;;5031754;28;20040;-60
2024/01/16 05:56:53;;;;;;;65.00;61.75;;;;;;;;;;5028280;28;20029;-60
2024/01/16 05:59:18;;;;;;;69.72;66.15;;;;;;;;;;5033212;28;20025;-59
2024/01/16 06:01:43;;;;;;;66.57;63.22;;;;;;;;;;5028894;28;20048;-60
2024/01/16 06:04:09;;;;;;;69.45;65.90;;;;;;;;;;5030457;28;21158;-60
2024/01/16 06:06:34;;;;;;;66.35;63.00;;;;;;;;;;5030730;28;20033;-59
2024/01/16 06:09:04;;;;;;;66.93;63.58;;;;;;;;;;5029871;28;20033;-60
2024/01/16 06:11:31;;;;;;;64.88;61.60;;;;;;;;;;5029710;28;20735;-60
2024/01/16 06:13:57;;;;;;;69.78;66.22;;;;;;;;;;5026676;28;20029;-57
2024/01/16 06:16:22;;;;;;;72.07;68.45;;;;;;;;;;5031578;28;20114;-60
2024/01/16 06:18:47;;;;;;;71.45;67.90;;;;;;;;;;5030045;28;20048;-60
2024/01/16 06:21:12;;;;;;;70.47;66.95;;;;;;;;;;5032121;28;20056;-60
2024/01/16 06:23:38;;;;;;;75.30;71.43;;;;;;;;;;5031282;28;20029;-59
2024/01/16 06:26:03;;;;;;;74.80;70.97;;;;;;;;;;5029990;28;20052;-60
2024/01/16 06:28:28;;;;;;;73.53;69.60;;;;;;;;;;5026296;28;20032;-60
2024/01/16 06:30:54;;;;;;;72.53;68.82;;;;;;;;;;5031478;28;20061;-60
2024/01/16 06:33:19;;;;;;;73.95;70.22;;;;;;;;;;5034014;28;20124;-60
2024/01/16 06:35:45;;;;;;;74.70;70.78;;;;;;;;;;5037644;28;20128;-60
2024/01/16 06:38:10;;;;;;;76.80;72.90;;;;;;;;;;5033881;28;20033;-60
2024/01/16 06:40:35;;;;;;;79.20;75.20;;;;;;;;;;5035276;28;20235;-60
2024/01/16 06:43:01;;;;;;;73.43;69.68;;;;;;;;;;5033911;28;20085;-60
2024/01/16 06:45:26;;;;;;;77.32;73.43;;;;;;;;;;5035479;28;20033;-60
2024/01/16 06:47:51;;;;;;;75.93;72.05;;;;;;;;;;5032455;28;20037;-60
2024/01/16 06:50:17;;;;;;;75.10;71.25;;;;;;;;;;5034077;28;20041;-60
2024/01/16 06:52:42;;;;;;;71.85;68.22;;;;;;;;;;5036758;28;20095;-61
2024/01/16 06:55:07;;;;;;;76.90;73.03;;;;;;;;;;5035494;28;20065;-60
2024/01/16 06:57:33;;;;;;;72.30;68.43;;;;;;;;;;5035621;28;20081;-59
2024/01/16 06:59:58;;;;;;;72.25;68.50;;;;;;;;;;5033478;28;20678;-62
2024/01/16 07:02:24;;;;;;;71.47;67.72;;;;;;;;;;5037157;28;20037;-60
2024/01/16 07:04:49;;;;;;;68.50;64.78;;;;;;;;;;5034156;28;20128;-61
2024/01/16 07:07:14;;;;;;;68.32;64.82;;;;;;;;;;5037377;28;20044;-61
2024/01/16 07:09:40;;;;;;;68.22;64.78;;;;;;;;;;5036665;28;20048;-61
2024/01/16 07:12:05;;;;;;;67.28;63.75;;;;;;;;;;5033939;28;20029;-61
2024/01/16 07:14:32;;;;;;;65.45;62.15;;;;;;;;;;5036250;28;20037;-60
2024/01/16 07:16:58;;;;;;;68.45;63.58;;;;;;;;;;5033634;28;20033;-61
2024/01/16 07:19:24;;;;;;;64.10;60.88;;;;;;;;;;5036942;28;20328;-61
2024/01/16 07:21:49;;;;;;;65.10;61.80;;;;;;;;;;5034966;28;20121;-61
2024/01/16 07:24:14;;;;;;;65.53;62.15;;;;;;;;;;5036731;28;20041;-61
2024/01/16 07:26:41;;;;;;;64.18;60.20;;;;;;;;;;5038393;28;20043;-60
2024/01/16 07:29:06;;;;;;;62.15;58.97;;;;;;;;;;5035164;28;20042;-60
2024/01/16 07:31:32;;;;;;;63.42;59.45;;;;;;;;;;5035043;28;20028;-60
2024/01/16 07:33:57;;;;;;;63.33;60.03;;;;;;;;;;5033583;28;20594;-60
2024/01/16 07:36:23;;;;;;;61.58;57.78;;;;;;;;;;5035898;28;20037;-60
2024/01/16 07:38:48;;;;;;;61.55;58.42;;;;;;;;;;5034747;28;20029;-60
2024/01/16 07:41:13;;;;;;;62.45;59.30;;;;;;;;;;5032104;28;20029;-60
2024/01/16 07:43:39;;;;;;;68.03;64.55;;;;;;;;;;5035984;28;20037;-60
2024/01/16 07:46:04;;;;;;;61.25;58.15;;;;;;;;;;5036343;28;20057;-60
2024/01/16 07:48:30;;;;;;;65.97;62.65;;;;;;;;;;5035399;28;20721;-60
2024/01/16 07:50:55;;;;;;;64.35;61.08;;;;;;;;;;5034570;28;20116;-60
2024/01/16 07:53:20;;;;;;;60.22;57.20;;;;;;;;;;5032414;28;20110;-60
2024/01/16 07:55:46;;;;;;;70.00;65.75;;;;;;;;;;5035931;28;20393;-60
2024/01/16 07:58:11;;;;;;;65.78;62.42;;;;;;;;;;5033753;28;20062;-60
2024/01/16 08:00:37;;;;;;;68.65;65.22;;;;;;;;;;5035262;28;20040;-60
2024/01/16 08:03:03;;;;;;;63.97;60.55;;;;;;;;;;5034453;28;20033;-60
2024/01/16 08:05:30;;;;;;;68.70;64.45;;;;;;;;;;5038354;28;21035;-60
2024/01/16 08:07:58;;;;;;;65.30;62.00;;;;;;;;;;5034504;28;20037;-60
2024/01/16 08:10:24;;;;;;;64.20;60.95;;;;;;;;;;5034564;28;20386;-60
2024/01/16 08:12:49;;;;;;;68.60;65.07;;;;;;;;;;5034412;28;20025;-60
2024/01/16 08:15:15;;;;;;;65.32;61.78;;;;;;;;;;5036430;28;20034;-60
2024/01/16 08:17:40;;;;;;;71.53;67.95;;;;;;;;;;5034667;28;20033;-60
2024/01/16 08:20:09;;;;;;;70.25;66.60;;;;;;;;;;5036944;28;20774;-60
2024/01/16 08:22:36;;;;;;;68.05;64.28;;;;;;;;;;5034726;28;20453;-60
2024/01/16 08:25:01;;;;;;;72.82;68.95;;;;;;;;;;5035092;28;20041;-60
2024/01/16 08:27:26;;;;;;;73.97;70.18;;;;;;;;;;5035908;28;20047;-60
2024/01/16 08:29:51;;;;;;;70.30;66.15;;;;;;;;;;5036476;28;20053;-60
2024/01/16 08:32:17;;;;;;;71.30;67.75;;;;;;;;;;5038101;28;20028;-60
2024/01/16 08:34:43;;;;;;;74.93;71.03;;;;;;;;;;5036063;28;20048;-60
2024/01/16 08:37:08;;;;;;;72.85;69.10;;;;;;;;;;5033896;28;20033;-60
2024/01/16 08:39:34;;;;;;;70.85;67.00;;;;;;;;;;5034461;28;20037;-61
2024/01/16 08:41:59;;;;;;;73.97;70.22;;;;;;;;;;5030761;28;20117;-60
2024/01/16 08:44:25;;;;;;;72.63;68.97;;;;;;;;;;5036357;28;20049;-60
2024/01/16 08:46:50;;;;;;;76.78;72.93;;;;;;;;;;5033290;28;20105;-61
2024/01/16 08:49:15;;;;;;;71.97;68.30;;;;;;;;;;5034408;28;20616;-60
2024/01/16 08:51:41;;;;;;;78.75;74.65;;;;;;;;;;5031583;28;20738;-61
2024/01/16 08:54:06;;;;;;;75.57;71.70;;;;;;;;;;5034813;28;20469;-61
2024/01/16 08:56:32;;;;;;;74.03;70.20;;;;;;;;;;5033294;28;20186;-61
2024/01/16 08:58:57;;;;;;;71.18;67.53;;;;;;;;;;5034065;28;20041;-61
2024/01/16 09:01:23;;;;;;;70.50;66.88;;;;;;;;;;5033588;28;20040;-61
2024/01/16 09:03:48;;;;;;;78.07;74.00;;;;;;;;;;5033869;28;20060;-60
2024/01/16 09:06:14;;;;;;;76.05;71.63;;;;;;;;;;5029815;28;20083;-60
2024/01/16 09:08:39;;;;;;;73.72;69.88;;;;;;;;;;5034660;28;20033;-60
2024/01/16 09:11:04;;;;;;;70.80;67.07;;;;;;;;;;5034465;28;20038;-60
2024/01/16 09:13:30;;;;;;;69.35;65.60;;;;;;;;;;5034439;28;20033;-61
2024/01/16 09:15:55;;;;;;;72.72;69.00;;;;;;;;;;5035564;28;20037;-60
2024/01/16 09:18:20;;;;;;;67.90;64.32;;;;;;;;;;5033480;28;20120;-61
2024/01/16 09:20:46;;;;;;;68.32;64.72;;;;;;;;;;5034376;28;20136;-60
2024/01/16 09:23:12;;;;;;;74.38;70.60;;;;;;;;;;5035501;28;20033;-61
2024/01/16 09:25:38;;;;;;;68.22;64.78;;;;;;;;;;5034996;28;20128;-60
2024/01/16 09:28:03;;;;;;;64.63;61.35;;;;;;;;;;5032513;28;20186;-61
2024/01/16 09:30:28;;;;;;;69.85;66.25;;;;;;;;;;5035653;28;20021;-61
2024/01/16 09:32:54;;;;;;;70.82;67.10;;;;;;;;;;5033445;28;20996;-61
2024/01/16 09:35:19;;;;;;;71.95;67.95;;;;;;;;;;5035586;28;20059;-61
2024/01/16 09:37:45;;;;;;;66.28;62.95;;;;;;;;;;5033449;28;20123;-61
2024/01/16 09:40:11;;;;;;;67.03;63.55;;;;;;;;;;5031771;28;20482;-61
2024/01/16 09:42:36;;;;;;;76.00;71.95;;;;;;;;;;5034781;28;20038;-61
2024/01/16 09:45:03;;;;;;;71.32;67.70;;;;;;;;;;5034867;28;20044;-61
2024/01/16 09:47:33;;;;;;;72.57;68.78;;;;;;;;;;5035493;28;20039;-61
2024/01/16 09:50:03;;;;;;;67.68;64.07;;;;;;;;;;5033716;28;20421;-61
2024/01/16 09:52:29;;;;;;;65.28;62.00;;;;;;;;;;5032224;28;20123;-61
2024/01/16 09:54:54;;;;;;;65.15;61.72;;;;;;;;;;5032435;28;20135;-60
2024/01/16 09:57:25;;;;;;;66.68;63.22;;;;;;;;;;5033045;28;20037;-61
2024/01/16 09:59:51;;;;;;;59.20;56.08;;;;;;;;;;5030506;28;20104;-61
2024/01/16 10:02:19;;;;;;;56.42;53.40;;;;;;;;;;5030396;28;20025;-61
2024/01/16 10:04:44;;;;;;;57.55;54.55;;;;;;;;;;5033709;28;20052;-61
2024/01/16 10:07:12;;;;;;;55.83;53.00;;;;;;;;;;5030067;28;20494;-61
2024/01/16 10:09:38;;;;;;;53.58;50.78;;;;;;;;;;5032506;28;20451;-61
2024/01/16 10:12:05;;;;;;;54.20;51.30;;;;;;;;;;5033356;28;20017;-60
2024/01/16 10:14:31;;;;;;;54.60;51.80;;;;;;;;;;5033024;28;20146;-60
2024/01/16 10:17:02;;;;;;;55.78;52.95;;;;;;;;;;5032054;28;20363;-60
2024/01/16 10:19:29;;;;;;;51.38;48.58;;;;;;;;;;5032405;28;20075;-60
2024/01/16 10:22:06;;;;;;;51.10;48.40;;;;;;;;;;5033465;28;20037;-60
2024/01/16 10:24:33;;;;;;;53.38;50.47;;;;;;;;;;5014577;28;20052;-60
2024/01/16 10:27:03;;;;;;;53.10;50.40;;;;;;;;;;5030099;28;20037;-60
2024/01/16 10:29:29;;;;;;;48.80;46.30;;;;;;;;;;5032428;28;20033;-60
2024/01/16 10:31:54;;;;;;;46.58;43.97;;;;;;;;;;5033083;28;20022;-60
2024/01/16 10:34:21;;;;;;;44.53;42.20;;;;;;;;;;5029782;28;20526;-60
2024/01/16 10:36:47;;;;;;;45.00;42.70;;;;;;;;;;5029813;28;20033;-60
2024/01/16 10:39:13;;;;;;;45.60;43.08;;;;;;;;;;5031773;28;20053;-60
2024/01/16 10:41:39;;;;;;;41.97;39.78;;;;;;;;;;5032137;28;20479;-59
2024/01/16 10:44:07;;;;;;;38.30;36.30;;;;;;;;;;5029893;28;20052;-60
2024/01/16 10:46:32;;;;;;;44.20;41.33;;;;;;;;;;5030081;28;20045;-59
2024/01/16 10:49:02;;;;;;;41.60;39.25;;;;;;;;;;5032170;28;20037;-59
2024/01/16 10:51:29;;;;;;;43.03;40.63;;;;;;;;;;5031374;28;20040;-59
2024/01/16 10:54:00;;;;;;;42.10;39.75;;;;;;;;;;5032781;28;20037;-59
2024/01/16 10:56:29;;;;;;;39.60;37.53;;;;;;;;;;5030081;28;20175;-59
2024/01/16 10:59:17;;;;;;;38.45;36.45;;;;;;;;;;5030568;28;20110;-58
2024/01/16 11:01:46;;;;;;;39.50;37.42;;;;;;;;;;5033521;28;20447;-58
2024/01/16 11:04:12;;;;;;;39.90;37.80;;;;;;;;;;5028445;28;20029;-59
2024/01/16 11:06:39;;;;;;;41.42;39.30;;;;;;;;;;5029364;28;20048;-59
2024/01/16 11:09:06;;;;;;;43.33;40.95;;;;;;;;;;5033031;28;20039;-59
2024/01/16 11:11:34;;;;;;;41.13;38.92;;;;;;;;;;5035834;28;20036;-58
2024/01/16 11:14:02;;;;;;;40.45;38.25;;;;;;;;;;5032466;28;20060;-58
2024/01/16 11:16:30;;;;;;;43.03;40.75;;;;;;;;;;5031425;28;20025;-58
2024/01/16 11:18:55;;;;;;;43.88;41.17;;;;;;;;;;5031216;28;20028;-57
2024/01/16 11:21:21;;;;;;;41.85;39.28;;;;;;;;;;5036445;28;20392;-58
2024/01/16 11:23:47;;;;;;;44.58;41.83;;;;;;;;;;5034048;28;20115;-58
2024/01/16 11:26:27;;;;;;;37.70;35.70;;;;;;;;;;5034517;28;20578;-57
2024/01/16 11:29:02;;;;;;;39.35;37.10;;;;;;;;;;5033904;28;20040;-53
2024/01/16 11:31:28;;;;;;;35.75;33.70;;;;;;;;;;5035490;28;20429;-54
2024/01/16 11:33:53;;;;;;;34.70;32.88;;;;;;;;;;5033305;28;20033;-54
2024/01/16 11:36:53;;;;;;;37.67;35.67;;;;;;;;;;5035127;28;20033;-54
2024/01/16 11:39:24;;;;;;;33.35;31.23;;;;;;;;;;5034209;28;20065;-52
2024/01/16 11:41:57;;;;;;;31.85;30.15;;;;;;;;;;5035278;28;20514;-59
2024/01/16 11:44:39;;;;;;;26.60;25.05;;;;;;;;;;5034580;28;20041;-60
2024/01/16 11:47:05;;;;;;;26.73;25.23;;;;;;;;;;5035020;28;20033;-59
2024/01/16 11:49:31;;;;;;;27.20;25.67;;;;;;;;;;5034378;28;20057;-59
2024/01/16 11:51:57;;;;;;;28.38;26.88;;;;;;;;;;5035727;28;20029;-60
2024/01/16 11:54:23;;;;;;;28.42;26.45;;;;;;;;;;5035200;28;20044;-59
2024/01/16 11:57:11;;;;;;;29.65;27.90;;;;;;;;;;5036053;28;20466;-59
2024/01/16 12:00:14;;;;;;;28.05;26.52;;;;;;;;;;5035731;28;20091;-59
2024/01/16 12:02:45;;;;;;;26.30;24.90;;;;;;;;;;5034803;28;20348;-59
2024/01/16 12:05:11;;;;;;;26.88;25.45;;;;;;;;;;5036249;28;20071;-59
2024/01/16 12:07:50;;;;;;;29.48;27.88;;;;;;;;;;5034267;28;20036;-59
2024/01/16 12:10:20;;;;;;;29.98;27.88;;;;;;;;;;5035650;28;20578;-59
2024/01/16 12:12:47;;;;;;;29.65;27.95;;;;;;;;;;5033955;28;20033;-59
2024/01/16 12:15:20;;;;;;;30.42;28.25;;;;;;;;;;5034977;28;20079;-59
2024/01/16 12:17:59;;;;;;;30.42;28.77;;;;;;;;;;5034551;28;20095;-59
2024/01/16 12:20:27;;;;;;;32.38;30.45;;;;;;;;;;5035864;28;20101;-59
2024/01/16 12:23:03;;;;;;;39.70;37.40;;;;;;;;;;5040926;28;20037;-59
2024/01/16 12:25:33;;;;;;;35.88;32.42;;;;;;;;;;5034195;28;20033;-59
2024/01/16 12:28:04;;;;;;;38.22;35.88;;;;;;;;;;5034980;28;20095;-59
2024/01/16 12:30:34;;;;;;;39.88;37.58;;;;;;;;;;5033857;28;20098;-59
2024/01/16 12:33:08;;;;;;;41.50;39.30;;;;;;;;;;5024428;28;20033;-60
2024/01/16 12:36:02;;;;;;;42.55;40.10;;;;;;;;;;5035833;28;20133;-59
2024/01/16 12:38:28;;;;;;;33.75;31.75;;;;;;;;;;5035182;28;20056;-58
2024/01/16 12:40:53;;;;;;;33.83;32.03;;;;;;;;;;5036244;28;20060;-59
2024/01/16 12:43:19;;;;;;;33.50;31.70;;;;;;;;;;5033865;28;20044;-59
2024/01/16 12:45:45;;;;;;;36.25;34.03;;;;;;;;;;5035680;28;20022;-58
2024/01/16 12:48:11;;;;;;;33.53;31.70;;;;;;;;;;5031863;28;20065;-59
2024/01/16 12:50:37;;;;;;;36.97;34.95;;;;;;;;;;5037043;28;20043;-58
2024/01/16 12:53:07;;;;;;;34.42;32.63;;;;;;;;;;5031653;28;20371;-59
2024/01/16 12:55:40;;;;;;;35.80;33.90;;;;;;;;;;5035323;28;20064;-58
2024/01/16 12:58:27;;;;;;;36.40;34.47;;;;;;;;;;5031070;28;20479;-59
2024/01/16 13:00:52;;;;;;;30.63;29.02;;;;;;;;;;5033280;28;20045;-59
2024/01/16 13:03:19;;;;;;;33.20;31.42;;;;;;;;;;5032065;28;20038;-58
2024/01/16 13:05:46;;;;;;;33.08;30.75;;;;;;;;;;5033848;28;20103;-58
2024/01/16 13:08:19;;;;;;;31.80;30.10;;;;;;;;;;5034769;28;20067;-58
2024/01/16 13:10:46;;;;;;;32.65;30.85;;;;;;;;;;5030122;28;20033;-59
2024/01/16 13:13:16;;;;;;;37.35;35.42;;;;;;;;;;5031214;28;20048;-58
2024/01/16 13:15:43;;;;;;;39.60;37.58;;;;;;;;;;5030224;28;20055;-60
2024/01/16 13:18:20;;;;;;;41.58;39.40;;;;;;;;;;5032688;28;20045;-59
2024/01/16 13:20:45;;;;;;;44.15;41.88;;;;;;;;;;5029512;28;20082;-59
2024/01/16 13:23:14;;;;;;;43.80;41.50;;;;;;;;;;5036003;28;20029;-59
2024/01/16 13:25:39;;;;;;;47.47;44.97;;;;;;;;;;5034668;28;20045;-59
2024/01/16 13:28:07;;;;;;;45.65;43.28;;;;;;;;;;5032824;28;20094;-59
2024/01/16 13:30:32;;;;;;;42.53;40.28;;;;;;;;;;5034775;28;20032;-59
2024/01/16 13:32:58;;;;;;;47.13;44.72;;;;;;;;;;5032896;28;20036;-59
2024/01/16 13:35:23;;;;;;;49.40;46.90;;;;;;;;;;5031398;28;20047;-59
2024/01/16 13:37:50;;;;;;;45.38;43.05;;;;;;;;;;5036005;28;20351;-59
2024/01/16 13:40:18;;;;;;;48.25;45.05;;;;;;;;;;5035114;28;20120;-59
2024/01/16 13:42:44;;;;;;;45.85;43.35;;;;;;;;;;5033290;28;20463;-59
2024/01/16 13:45:13;;;;;;;48.85;46.35;;;;;;;;;;5032977;28;20049;-59
2024/01/16 13:47:40;;;;;;;49.50;46.80;;;;;;;;;;5030846;28;20063;-59
2024/01/16 13:50:06;;;;;;;47.42;44.92;;;;;;;;;;5034332;28;20033;-59
2024/01/16 13:52:33;;;;;;;52.35;48.67;;;;;;;;;;5033962;28;20041;-59
2024/01/16 13:55:01;;;;;;;49.42;46.92;;;;;;;;;;5033865;28;20037;-59
2024/01/16 13:57:26;;;;;;;52.28;49.30;;;;;;;;;;5033111;28;20060;-59
2024/01/16 13:59:52;;;;;;;50.08;47.47;;;;;;;;;;5033753;28;20068;-59
2024/01/16 14:02:17;;;;;;;45.22;42.92;;;;;;;;;;5032126;28;20136;-59
2024/01/16 14:04:42;;;;;;;44.35;41.85;;;;;;;;;;5033584;28;20041;-59
2024/01/16 14:07:07;;;;;;;42.25;40.10;;;;;;;;;;5034221;28;20041;-59
2024/01/16 14:09:36;;;;;;;41.42;39.20;;;;;;;;;;5032004;28;20040;-59
2024/01/16 14:12:02;;;;;;;39.47;37.28;;;;;;;;;;5032175;28;20040;-60
2024/01/16 14:14:27;;;;;;;36.67;34.78;;;;;;;;;;5033447;28;20024;-60